Flight Track Log - Related Links

Times and Time Zones

All times are in EDT time to prevent confusion due to time zone crossing. See the RPA4907 flight status page for this flight to view local times or setup timezone preferences in your user account.

Time Position Orientation Groundspeed Altitude Reporting Facility
EDT Latitude Longitude Course Direction KTS MPH feet Rate Location/Type
Sat 10:45:36 AM 42.7442 -73.6500 261° West 130 150 24,000  Level Boston Center
Sat 10:47:00 AM 42.6592 -73.7417 270° West  Level Estimated
Sat 10:54:00 AM 42.2333 -74.1967 223° Southwest  Level Estimated
Sat 10:55:00 AM 42.1723 -74.2612 219° Southwest  Level Estimated
Sat 10:56:00 AM 42.2101 -74.3525 299° West  Level FlightAware Approximate
Sat 10:57:00 AM 42.1482 -74.4152 216° Southwest  Level Estimated
Sat 10:58:00 AM 42.0862 -74.4779 219° Southwest  Level Estimated
Sat 10:59:00 AM 42.1037 -74.5796 283° West  Level FlightAware Approximate
Sat 11:00:00 AM 42.0407 -74.6404 249° West  Level Estimated
Sat 11:01:00 AM 42.0626 -74.7405 286° West  Level FlightAware Approximate
Sat 11:02:00 AM 41.9987 -74.7995 246° West  Level Estimated
Sat 11:03:00 AM 41.9348 -74.8584 243° Southwest  Level Estimated
Sat 11:04:00 AM 41.8709 -74.9172 246° West  Level Estimated
Sat 11:05:00 AM 41.8069 -74.9758 235° Southwest  Level Estimated
Sat 11:06:00 AM 41.8027 -75.0796 267° West  Level FlightAware Approximate
Sat 11:07:00 AM 41.7983 -75.1833 267° West  Level FlightAware Approximate
Sat 11:08:00 AM 41.7939 -75.2871 267° West  Level FlightAware Approximate
Sat 11:09:00 AM 41.7894 -75.3908 267° West  Level FlightAware Approximate
Sat 11:10:00 AM 41.7848 -75.4946 267° West  Level FlightAware Approximate
Sat 11:11:00 AM 41.7167 -75.5440 239° Southwest  Level Estimated
Sat 11:12:00 AM 41.7002 -75.6454 258° West  Level FlightAware Approximate
Sat 11:13:00 AM 41.6836 -75.7468 258° West  Level FlightAware Approximate
Sat 11:14:00 AM 41.6670 -75.8481 258° West  Level FlightAware Approximate
Sat 11:15:00 AM 41.5967 -75.8916 234° Southwest  Level Estimated
Sat 11:16:00 AM 41.5715 -75.9896 251° West  Level FlightAware Approximate
Sat 11:17:00 AM 41.5462 -76.0874 251° West  Level FlightAware Approximate
Sat 11:18:00 AM 41.5209 -76.1852 251° West  Level FlightAware Approximate
Sat 11:19:00 AM 41.4486 -76.2225 239° Southwest  Level Estimated
Sat 11:20:00 AM 41.4278 -76.3220 254° West  Level FlightAware Approximate
Sat 11:21:00 AM 41.3548 -76.3568 190° South  Level Estimated
Sat 11:22:00 AM 41.3032 -76.4338 228° Southwest  Level FlightAware Approximate
Sat 11:23:00 AM 41.2516 -76.5106 228° Southwest  Level FlightAware Approximate
Sat 11:24:00 AM 41.1999 -76.5874 228° Southwest  Level FlightAware Approximate
Sat 11:25:00 AM 41.1257 -76.6171 187° South  Level Estimated
Sat 11:26:00 AM 41.0606 -76.6729 213° Southwest  Level FlightAware Approximate
Sat 11:27:00 AM 40.9955 -76.7285 213° Southwest  Level FlightAware Approximate
Sat 11:28:00 AM 40.9209 -76.7560 193° South  Level Estimated
Sat 11:29:00 AM 40.8482 -76.7913 200° South  Level FlightAware Approximate
Sat 11:30:00 AM 40.7754 -76.8266 200° South  Level FlightAware Approximate
Sat 11:31:00 AM 40.7027 -76.8618 200° South  Level FlightAware Approximate
Sat 11:32:00 AM 40.6299 -76.8969 200° South  Level FlightAware Approximate
Sat 11:33:00 AM 40.5522 -76.9235 189° South  Level Estimated
Sat 11:34:00 AM 40.4849 -76.9465 197° South  Level Estimated
Sat 11:35:00 AM 40.4175 -76.9695 194° South  Level Estimated
Sat 11:36:00 AM 40.3502 -76.9925 194° South  Level Estimated
Sat 11:37:00 AM 40.2837 -77.0194 197° South  Level FlightAware Approximate
Sat 11:38:00 AM 40.2163 -77.0420 201° Southwest  Level Estimated
Sat 11:39:00 AM 40.1488 -77.0646 192° South  Level Estimated
Sat 11:40:00 AM 40.0811 -77.0852 193° South  Level FlightAware Approximate
Sat 11:41:00 AM 40.0136 -77.1078 194° South  Level Estimated
Sat 11:42:00 AM 39.9464 -77.1314 195° South  Level FlightAware Approximate
Sat 11:43:00 AM 39.8790 -77.1539 194° South  Level Estimated
Sat 11:44:00 AM 39.8116 -77.1763 232° Southwest  Level Estimated
Sat 11:45:00 AM 39.7442 -77.1987 189° South  Level Estimated
Sat 11:46:00 AM 39.6833 -77.2425 209° Southwest  Level FlightAware Approximate
Sat 11:47:00 AM 39.6155 -77.2627 191° South  Level Estimated
Sat 11:47:54 AM 42.7256 -73.8053 180° South 167 192 1,100  Level Boston Center
Sat 11:48:00 AM 39.5476 -77.2830 186° South  Level Estimated
Sat 11:49:00 AM 39.4817 -77.3117 199° South  Level FlightAware Approximate
Sat 11:49:06 AM 42.6711 -73.8322 200° South 219 252 3,300  Level Boston Center
Sat 11:50:00 AM 39.4137 -77.3307 186° South  Level Estimated
Sat 11:50:24 AM 42.6283 -73.9189 236° Southwest 237 273 6,100  Level Boston Center
Sat 11:51:00 AM 39.3352 -77.3526 218° Southwest  Level Estimated
Sat 11:51:24 AM 42.6022 -73.9942 245° Southwest 232 267 8,400  Level Boston Center
Sat 11:52:00 AM 39.2567 -77.3744 195° South  Level Estimated
Sat 11:52:24 AM 42.5722 -74.0639 240° Southwest 220 253 10,600  Level Boston Center
Sat 11:53:00 AM 39.1782 -77.3962 180° South  Level Estimated
Sat 11:53:24 AM 42.5378 -74.1447 240° Southwest 220 253 12,500  Level Boston Center
Sat 11:54:24 AM 42.5117 -74.2117 242° Southwest 225 259 14,200 1,600 Climbing Boston Center
Sat 11:55:24 AM 42.4769 -74.2922 240° Southwest 225 259 15,700 1,400 Climbing Boston Center
Sat 11:56:24 AM 42.4528 -74.3647 246° West 225 259 17,000 1,500 Climbing Boston Center
Sat 11:57:24 AM 42.4181 -74.4453 240° Southwest 231 266 18,700 1,250 Climbing Boston Center
Sat 11:58:24 AM 42.3853 -74.5286 242° Southwest 238 274 19,500 900 Climbing Boston Center
Sat 11:59:24 AM 42.3547 -74.6064 242° Southwest 243 280 20,500 1,000 Climbing Boston Center
Sat 12:00:24 PM 42.3219 -74.6894 242° Southwest 243 280 21,500 520 Climbing Boston Center
Sat 12:02:17 PM 42.2597 -74.8364 240° Southwest 247 284 22,000 175 Climbing New York Center
Sat 12:03:15 PM 42.2208 -74.9319 241° Southwest 276 318 22,000  Level New York Center
Sat 12:04:16 PM 42.1819 -75.0358 243° Southwest 296 341 22,000  Level New York Center
Sat 12:05:17 PM 42.1389 -75.1336 239° Southwest 302 348 22,000  Level New York Center
Sat 12:06:17 PM 42.0975 -75.2344 241° Southwest 302 348 22,000  Level New York Center
Sat 12:07:15 PM 42.0564 -75.3350 241° Southwest 302 348 22,000  Level New York Center
Sat 12:08:16 PM 42.0067 -75.4319 235° Southwest 308 354 22,000 -198 Level New York Center
Sat 12:09:16 PM 41.9592 -75.5317 237° Southwest 314 361 21,600 -950 Descending New York Center
Sat 12:10:16 PM 41.9136 -75.6233 236° Southwest 314 361 20,100 -1,488 Descending New York Center
Sat 12:11:17 PM 41.8614 -75.7281 236° Southwest 314 361 18,600 -1,664 Descending New York Center
Sat 12:12:15 PM 41.8025 -75.7961 221° Southwest 314 361 16,800 -1,311 Descending New York Center
Sat 12:13:16 PM 41.7261 -75.8764 218° Southwest 314 361 16,000 -400 Descending New York Center
Sat 12:14:15 PM 41.6606 -75.9492 220° Southwest 321 369 16,000  Level New York Center
Sat 12:15:15 PM 41.5928 -76.0217 219° Southwest 321 369 16,000  Level New York Center
Sat 12:16:16 PM 41.5314 -76.0889 219° Southwest 316 364 16,000  Level New York Center
Sat 12:17:17 PM 41.4636 -76.1608 219° Southwest 316 364 16,000  Level New York Center
Sat 12:18:17 PM 41.3892 -76.2433 220° Southwest 316 364 16,000  Level New York Center
Sat 12:19:15 PM 41.3192 -76.3150 218° Southwest 321 369 16,000  Level New York Center
Sat 12:20:15 PM 41.2575 -76.3844 220° Southwest 321 369 16,000  Level New York Center
Sat 12:21:16 PM 41.1872 -76.4586 218° Southwest 321 369 16,000  Level New York Center
Sat 12:22:15 PM 41.1081 -76.5458 220° Southwest 326 375 16,000  Level New York Center
Sat 12:23:16 PM 41.0378 -76.6194 218° Southwest 326 375 16,000  Level New York Center
Sat 12:24:16 PM 40.9672 -76.6958 219° Southwest 326 375 16,000  Level New York Center
Sat 12:25:16 PM 40.9033 -76.7672 220° Southwest 326 375 16,000  Level New York Center
Sat 12:26:17 PM 40.8306 -76.8431 218° Southwest 331 381 16,000  Level New York Center
Sat 12:27:15 PM 40.7419 -76.9039 207° Southwest 331 381 16,000  Level New York Center
Sat 12:28:16 PM 40.6594 -76.9267 192° South 331 381 16,000  Level New York Center
Sat 12:29:17 PM 40.5578 -76.9583 193° South 342 394 16,000  Level New York Center
Sat 12:30:17 PM 40.4772 -76.9839 194° South 342 394 16,000  Level New York Center
Sat 12:31:15 PM 40.3756 -77.0156 193° South 342 394 16,000 -559 Level New York Center
Sat 12:32:15 PM 40.2867 -77.0431 193° South 342 394 14,900 -1,240 Descending New York Center
Sat 12:33:16 PM 40.2019 -77.0681 193° South 330 380 13,500 -1,455 Descending New York Center
Sat 12:35:00 PM 40.0667 -77.1167 195° South 306 352 10,900 -1,527 Descending Potomac TRACON
Sat 12:36:01 PM 39.9833 -77.1333 189° South 279 321 9,300 -942 Descending Potomac TRACON
Sat 12:37:01 PM 39.9167 -77.1500 191° South 260 299 9,000 -158 Descending Potomac TRACON
Sat 12:37:55 PM 39.8333 -77.1667 189° South 275 316 9,000  Level Potomac TRACON
Sat 12:39:02 PM 39.7667 -77.2000 201° Southwest 278 320 9,000 -94 Level Potomac TRACON
Sat 12:40:02 PM 39.7000 -77.2500 210° Southwest 266 306 8,800 -887 Descending Potomac TRACON
Sat 12:40:57 PM 39.6500 -77.3000 218° Southwest 257 296 7,300 -939 Descending Potomac TRACON
Sat 12:41:57 PM 39.5833 -77.3500 210° Southwest 251 289 7,000 -150 Descending Potomac TRACON
Sat 12:42:57 PM 39.5333 -77.4000 218° Southwest 248 285 7,000  Level Potomac TRACON
Sat 12:43:51 PM 39.4833 -77.4500 218° Southwest 257 296 7,000 -550 Level Potomac TRACON
Sat 12:44:57 PM 39.4000 -77.4667 189° South 262 302 5,900 -952 Descending Potomac TRACON
Sat 12:45:57 PM 39.3333 -77.4500 169° South 243 280 5,000 -500 Descending Potomac TRACON
Sat 12:46:57 PM 39.2667 -77.4500 180° South 218 251 4,900 -149 Descending Potomac TRACON
Sat 12:47:58 PM 39.2167 -77.4500 180° South 209 241 4,700 -545 Descending Potomac TRACON
Sat 12:48:58 PM 39.1500 -77.4500 180° South 190 219 3,800 -950 Descending Potomac TRACON
Sat 12:49:58 PM 39.1000 -77.4500 180° South 188 216 2,800 -1,000 Descending Potomac TRACON

Login

Don't have an account? Register now (free) for customized features, flight alerts, and more!